createdAt,value
2023-11-23T00:02:20.306Z,1.35
2023-11-23T00:06:21.977Z,1.29
2023-11-23T00:10:23.544Z,1.43
2023-11-23T00:14:26.613Z,1.58
2023-11-23T00:18:28.113Z,1.56
2023-11-23T00:22:29.734Z,1.69
2023-11-23T00:26:31.377Z,1.70
2023-11-23T00:30:34.277Z,1.40
2023-11-23T00:34:35.874Z,1.43
2023-11-23T00:38:37.520Z,1.48
2023-11-23T00:42:39.146Z,1.39
2023-11-23T00:46:42.083Z,1.39
2023-11-23T00:50:43.542Z,1.23
2023-11-23T00:54:45.114Z,1.13
2023-11-23T00:58:46.692Z,1.17
2023-11-23T01:02:49.805Z,1.39
2023-11-23T01:06:51.469Z,1.20
2023-11-23T01:10:53.024Z,0.96
2023-11-23T01:14:54.610Z,1.38
2023-11-23T01:18:57.559Z,1.21
2023-11-23T01:22:59.111Z,1.04
2023-11-23T01:27:00.698Z,1.01
2023-11-23T01:31:02.277Z,1.06
2023-11-23T01:35:06.449Z,1.05
2023-11-23T01:39:08.040Z,1.17
2023-11-23T01:43:09.643Z,0.88
2023-11-23T01:47:14.033Z,0.80
2023-11-23T01:51:18.287Z,0.89
2023-11-23T01:55:20.065Z,1.07
2023-11-23T01:59:21.685Z,1.11
2023-11-23T02:03:23.474Z,0.87
2023-11-23T02:07:26.469Z,0.84
2023-11-23T02:11:27.945Z,0.61
2023-11-23T02:15:29.601Z,0.67
2023-11-23T02:19:31.168Z,0.57
2023-11-23T02:23:34.133Z,0.64
2023-11-23T02:27:36.896Z,0.64
2023-11-23T02:31:38.730Z,0.65
2023-11-23T02:35:40.402Z,0.78
2023-11-23T02:39:42.180Z,0.54
2023-11-23T02:43:45.376Z,0.86
2023-11-23T02:47:47.039Z,0.87
2023-11-23T02:51:48.661Z,0.77
2023-11-23T02:55:50.201Z,0.72
2023-11-23T02:59:53.209Z,0.63
2023-11-23T03:03:55.574Z,0.83
2023-11-23T03:07:57.201Z,0.70
2023-11-23T03:11:59.820Z,0.84
2023-11-23T03:16:02.784Z,0.73
2023-11-23T03:20:04.488Z,0.65
2023-11-23T03:24:06.693Z,0.43
2023-11-23T03:28:08.283Z,0.61
2023-11-23T03:32:11.430Z,0.61
2023-11-23T03:36:13.064Z,0.47
2023-11-23T03:40:14.752Z,0.70
2023-11-23T03:44:16.323Z,0.57
2023-11-23T03:48:19.723Z,0.55
2023-11-23T03:52:21.311Z,0.70
2023-11-23T03:56:22.880Z,0.59
2023-11-23T04:00:24.531Z,0.56
2023-11-23T04:04:27.498Z,0.75
2023-11-23T04:08:28.921Z,0.59
2023-11-23T04:12:30.489Z,0.52
2023-11-23T04:16:32.118Z,0.62
2023-11-23T04:20:35.046Z,0.53
2023-11-23T04:24:37.961Z,0.21
2023-11-23T04:28:40.713Z,0.15
2023-11-23T04:32:42.246Z,0.39
2023-11-23T04:36:45.192Z,0.75
2023-11-23T04:40:46.639Z,0.58
2023-11-23T04:44:48.297Z,0.51
2023-11-23T04:48:50.033Z,0.79
2023-11-23T04:52:53.009Z,0.75
2023-11-23T04:56:54.583Z,0.48
2023-11-23T05:00:56.280Z,0.67
2023-11-23T05:04:57.914Z,0.66
2023-11-23T05:09:00.903Z,0.86
2023-11-23T05:13:02.354Z,0.86
2023-11-23T05:17:04.322Z,0.70
2023-11-23T05:21:06.106Z,0.78
2023-11-23T05:25:09.443Z,0.82
2023-11-23T05:29:10.993Z,0.89
2023-11-23T05:33:12.799Z,0.75
2023-11-23T05:37:14.380Z,0.81
2023-11-23T05:41:17.282Z,0.60
2023-11-23T05:45:18.709Z,0.66
2023-11-23T05:49:20.352Z,0.87
2023-11-23T05:53:21.901Z,0.84
2023-11-23T05:57:25.212Z,0.78
2023-11-23T06:01:26.783Z,0.64
2023-11-23T06:05:28.475Z,0.44
2023-11-23T06:09:30.324Z,0.13
2023-11-23T06:13:33.239Z,0.03
2023-11-23T06:17:34.647Z,0.07
2023-11-23T06:21:36.256Z,-0.03
2023-11-23T06:25:37.841Z,-0.24
2023-11-23T06:29:40.779Z,-0.25
2023-11-23T06:33:42.247Z,-0.34
2023-11-23T06:37:43.835Z,-0.55
2023-11-23T06:41:45.396Z,-0.46
2023-11-23T06:45:48.569Z,-0.53
2023-11-23T06:49:50.154Z,-0.72
2023-11-23T06:53:51.736Z,-0.67
2023-11-23T06:57:53.331Z,-0.78
2023-11-23T07:01:56.332Z,-0.43
2023-11-23T07:05:57.966Z,-0.51
2023-11-23T07:09:59.569Z,-0.33
2023-11-23T07:14:01.189Z,-0.50
2023-11-23T07:18:04.290Z,-0.48
2023-11-23T07:22:06.158Z,-0.01
2023-11-23T07:26:07.778Z,-0.05
2023-11-23T07:30:10.310Z,-0.08
2023-11-23T07:34:13.250Z,0.03
2023-11-23T07:38:16.264Z,-0.14
2023-11-23T07:42:18.957Z,0.10
2023-11-23T07:46:22.984Z,0.18
2023-11-23T07:50:26.569Z,0.25
2023-11-23T07:54:28.037Z,0.17
2023-11-23T07:58:29.679Z,0.17
2023-11-23T08:02:31.545Z,0.14
2023-11-23T08:06:34.503Z,0.25
2023-11-23T08:10:35.979Z,0.32
2023-11-23T08:14:37.549Z,0.20
2023-11-23T08:18:43.665Z,0.30
2023-11-23T08:22:52.593Z,0.32
2023-11-23T08:26:54.089Z,0.50
2023-11-23T08:30:55.744Z,0.54
2023-11-23T08:34:57.351Z,0.49
2023-11-23T08:39:00.390Z,0.81
2023-11-23T08:43:02.004Z,0.81
2023-11-23T08:47:04.384Z,0.79
2023-11-23T08:51:06.637Z,0.92
2023-11-23T08:55:10.367Z,0.98
2023-11-23T08:59:11.957Z,1.13
2023-11-23T09:03:13.736Z,1.23
2023-11-23T09:07:15.439Z,1.08
2023-11-23T09:11:18.428Z,1.22
2023-11-23T09:19:21.429Z,1.48
2023-11-23T09:23:23.018Z,1.60
2023-11-23T09:27:25.994Z,1.57
2023-11-23T09:31:27.449Z,1.79
2023-11-23T09:35:28.994Z,1.85
2023-11-23T09:39:30.631Z,1.90
2023-11-23T09:43:34.730Z,1.88
2023-11-23T09:47:36.559Z,2.02
2023-11-23T09:51:38.866Z,1.94
2023-11-23T09:55:40.689Z,2.22
2023-11-23T09:59:43.592Z,2.23
2023-11-23T10:03:53.688Z,2.65
2023-11-23T10:07:55.465Z,3.00
2023-11-23T10:11:57.173Z,3.02
2023-11-23T10:16:02.805Z,2.95
2023-11-23T10:20:08.853Z,3.44
2023-11-23T10:24:10.648Z,3.48
2023-11-23T10:28:12.271Z,3.48
2023-11-23T10:32:16.702Z,3.48
2023-11-23T10:36:19.076Z,3.90
2023-11-23T10:40:21.241Z,3.80
2023-11-23T10:44:22.860Z,3.76
2023-11-23T10:48:26.069Z,3.79
2023-11-23T10:52:27.781Z,3.82
2023-11-23T10:56:31.315Z,3.86
2023-11-23T11:00:33.504Z,3.95
2023-11-23T11:04:36.859Z,3.90
2023-11-23T11:08:43.954Z,4.07
2023-11-23T11:12:47.584Z,4.03
2023-11-23T11:17:01.160Z,4.10
2023-11-23T11:21:08.752Z,4.16
2023-11-23T11:25:14.916Z,4.20
2023-11-23T11:29:17.662Z,4.15
2023-11-23T11:33:24.758Z,4.13
2023-11-23T11:37:30.747Z,4.09
2023-11-23T11:41:33.734Z,4.28
2023-11-23T11:45:35.407Z,4.30
2023-11-23T11:49:37.061Z,4.26
2023-11-23T11:53:40.108Z,4.21
2023-11-23T11:57:41.706Z,4.33
2023-11-23T12:01:43.438Z,4.44
2023-11-23T12:05:45.111Z,4.47
2023-11-23T12:09:55.378Z,4.58
2023-11-23T12:13:57.187Z,4.50
2023-11-23T12:17:58.872Z,4.56
2023-11-23T12:22:00.543Z,4.53
2023-11-23T12:26:03.578Z,4.84
2023-11-23T12:30:05.663Z,4.91
2023-11-23T12:34:07.234Z,4.95
2023-11-23T12:38:09.253Z,4.99
2023-11-23T12:42:12.347Z,5.06
2023-11-23T12:46:13.935Z,5.10
2023-11-23T12:50:15.620Z,5.10
2023-11-23T12:54:17.228Z,5.17
2023-11-23T12:58:20.193Z,5.13
2023-11-23T13:02:21.853Z,5.17
2023-11-23T13:06:23.546Z,5.28
2023-11-23T13:10:25.258Z,5.45
2023-11-23T13:14:28.186Z,5.11
2023-11-23T13:18:47.653Z,5.02
2023-11-23T13:22:52.010Z,5.14
2023-11-23T13:26:53.608Z,5.25
2023-11-23T13:30:56.552Z,5.38
2023-11-23T13:34:58.168Z,5.17
2023-11-23T13:38:59.721Z,5.34
2023-11-23T13:43:01.321Z,5.31
2023-11-23T13:47:04.776Z,5.29
2023-11-23T13:51:06.600Z,5.23
2023-11-23T13:55:08.355Z,5.29
2023-11-23T13:59:10.057Z,5.47
2023-11-23T14:03:13.109Z,5.51
2023-11-23T14:07:14.600Z,5.54
2023-11-23T14:11:16.186Z,5.43
2023-11-23T14:15:18.004Z,5.52
2023-11-23T14:19:21.045Z,5.58
2023-11-23T14:23:22.668Z,5.53
2023-11-23T14:27:24.890Z,5.52
2023-11-23T14:31:27.128Z,5.44
2023-11-23T14:35:30.068Z,5.46
2023-11-23T14:39:31.696Z,5.48
2023-11-23T14:43:33.339Z,5.41
2023-11-23T14:47:34.916Z,5.44
2023-11-23T14:51:37.897Z,5.46
2023-11-23T14:55:39.475Z,5.45
2023-11-23T14:59:41.310Z,5.47
2023-11-23T15:03:42.927Z,5.41
2023-11-23T15:07:46.376Z,5.39
2023-11-23T15:11:48.703Z,5.40
2023-11-23T15:15:50.390Z,5.39
2023-11-23T15:19:52.054Z,5.33
2023-11-23T15:23:54.974Z,5.39
2023-11-23T15:27:56.560Z,5.38
2023-11-23T15:31:58.137Z,5.35
2023-11-23T15:35:59.717Z,5.21
2023-11-23T15:40:02.700Z,5.37
2023-11-23T15:44:04.840Z,5.34
2023-11-23T15:48:06.799Z,5.33
2023-11-23T15:52:08.435Z,5.28
2023-11-23T15:56:15.736Z,5.25
2023-11-23T16:00:17.679Z,5.21
2023-11-23T16:04:19.458Z,5.33
2023-11-23T16:08:21.155Z,5.31
2023-11-23T16:12:24.079Z,5.40
2023-11-23T16:16:25.698Z,5.36
2023-11-23T16:20:27.249Z,5.35
2023-11-23T16:24:29.045Z,5.36
2023-11-23T16:28:31.999Z,5.38
2023-11-23T16:32:33.601Z,5.39
2023-11-23T16:36:39.635Z,5.43
2023-11-23T16:40:42.012Z,5.47
2023-11-23T16:44:44.928Z,5.51
2023-11-23T16:48:46.630Z,5.51
2023-11-23T16:52:48.245Z,5.59
2023-11-23T16:56:49.830Z,5.63
2023-11-23T17:00:53.168Z,5.64
2023-11-23T17:04:56.141Z,5.71
2023-11-23T17:08:59.043Z,5.71
2023-11-23T17:13:00.686Z,5.71
2023-11-23T17:17:03.919Z,5.69
2023-11-23T17:21:06.383Z,5.78
2023-11-23T17:25:09.377Z,5.84
2023-11-23T17:29:11.377Z,5.77
2023-11-23T17:33:14.745Z,5.78
2023-11-23T17:37:16.707Z,5.80
2023-11-23T17:41:18.614Z,5.81
2023-11-23T17:45:20.495Z,5.79
2023-11-23T17:49:23.634Z,5.79
2023-11-23T17:53:25.037Z,5.76
2023-11-23T17:57:26.744Z,5.74
2023-11-23T18:01:28.535Z,5.80
2023-11-23T18:05:31.668Z,5.85
2023-11-23T18:09:33.401Z,5.86
2023-11-23T18:13:35.286Z,5.85
2023-11-23T18:17:37.208Z,5.78
2023-11-23T18:21:40.203Z,5.88
2023-11-23T18:25:41.815Z,5.88
2023-11-23T18:29:43.756Z,5.95
2023-11-23T18:33:45.400Z,5.93
2023-11-23T18:37:48.393Z,5.94
2023-11-23T18:41:50.045Z,5.85
2023-11-23T18:45:51.674Z,5.93
2023-11-23T18:49:53.277Z,5.94
2023-11-23T18:53:56.174Z,5.94
2023-11-23T18:57:57.849Z,5.88
2023-11-23T19:01:59.542Z,5.90
2023-11-23T19:06:01.318Z,5.85
2023-11-23T19:10:04.866Z,5.82
2023-11-23T19:14:06.532Z,5.80
2023-11-23T19:18:09.153Z,5.73
2023-11-23T19:22:11.318Z,5.85
2023-11-23T19:26:15.385Z,5.75
2023-11-23T19:30:18.088Z,5.76
2023-11-23T19:34:20.322Z,5.76
2023-11-23T19:38:22.856Z,5.77
2023-11-23T19:42:27.724Z,5.80
2023-11-23T19:46:29.873Z,5.76
2023-11-23T19:50:31.922Z,5.74
2023-11-23T19:54:33.552Z,5.78
2023-11-23T19:58:36.500Z,5.80
2023-11-23T20:02:38.348Z,5.77
2023-11-23T20:06:40.109Z,5.63
2023-11-23T20:10:45.083Z,5.73
2023-11-23T20:14:48.842Z,5.76
2023-11-23T20:18:50.430Z,5.79
2023-11-23T20:22:52.123Z,5.71
2023-11-23T20:26:53.850Z,5.86
2023-11-23T20:30:56.806Z,5.88
2023-11-23T20:34:58.435Z,5.86
2023-11-23T20:39:00.101Z,5.94
2023-11-23T20:43:01.703Z,5.84
2023-11-23T20:47:04.879Z,5.97
2023-11-23T20:51:06.319Z,5.90
2023-11-23T20:55:09.168Z,5.91
2023-11-23T20:59:11.438Z,5.86
2023-11-23T21:03:15.202Z,5.90
2023-11-23T21:07:17.566Z,5.84
2023-11-23T21:11:19.499Z,5.83
2023-11-23T21:15:21.786Z,5.86
2023-11-23T21:19:24.807Z,5.85
2023-11-23T21:23:26.475Z,5.85
2023-11-23T21:27:28.239Z,5.86
2023-11-23T21:31:29.850Z,5.85
2023-11-23T21:35:32.762Z,5.93
2023-11-23T21:39:34.353Z,5.92
2023-11-23T21:43:35.926Z,5.95
2023-11-23T21:47:39.783Z,5.95
2023-11-23T21:51:43.006Z,5.97
2023-11-23T21:55:44.566Z,5.98
2023-11-23T21:59:46.129Z,5.99
2023-11-23T22:03:51.374Z,6.02
2023-11-23T22:07:54.771Z,6.01
2023-11-23T22:11:56.343Z,6.01
2023-11-23T22:15:58.217Z,6.01
2023-11-23T22:20:00.215Z,6.06
2023-11-23T22:24:03.760Z,6.06
2023-11-23T22:28:06.566Z,6.07
2023-11-23T22:32:10.125Z,6.09
2023-11-23T22:36:12.839Z,6.07
2023-11-23T22:40:17.081Z,6.08
2023-11-23T22:44:19.261Z,6.12
2023-11-23T22:48:20.828Z,6.13
2023-11-23T22:52:22.378Z,6.12
2023-11-23T22:56:25.309Z,6.15
2023-11-23T23:00:27.186Z,6.14
2023-11-23T23:04:28.807Z,6.15
2023-11-23T23:08:30.416Z,6.13
2023-11-23T23:12:33.340Z,6.15
2023-11-23T23:16:34.938Z,6.13
2023-11-23T23:20:36.505Z,6.15
2023-11-23T23:24:38.091Z,6.15
2023-11-23T23:28:41.077Z,6.24
2023-11-23T23:32:44.080Z,6.24
2023-11-23T23:36:45.521Z,6.20
2023-11-23T23:40:47.199Z,6.20
2023-11-23T23:44:50.118Z,6.24
2023-11-23T23:48:51.735Z,6.29
2023-11-23T23:52:53.415Z,6.33
2023-11-23T23:56:55.081Z,6.28
